sensor_id;sensor_type;location;lat;lon;timestamp;P1;durP1;ratioP1;P2;durP2;ratioP2
5696;SDS011;2873;50.966;7.210;2022-12-17T00:00:21;85.32;;;27.65;;
5696;SDS011;2873;50.966;7.210;2022-12-17T00:03:07;90.13;;;27.52;;
5696;SDS011;2873;50.966;7.210;2022-12-17T00:05:52;87.38;;;26.25;;
5696;SDS011;2873;50.966;7.210;2022-12-17T00:08:36;75.85;;;25.88;;
5696;SDS011;2873;50.966;7.210;2022-12-17T00:11:21;72.13;;;24.30;;
5696;SDS011;2873;50.966;7.210;2022-12-17T00:14:05;72.32;;;26.05;;
5696;SDS011;2873;50.966;7.210;2022-12-17T00:16:49;76.28;;;24.42;;
5696;SDS011;2873;50.966;7.210;2022-12-17T00:19:33;90.95;;;24.15;;
5696;SDS011;2873;50.966;7.210;2022-12-17T00:22:17;81.03;;;23.92;;
5696;SDS011;2873;50.966;7.210;2022-12-17T00:25:01;76.97;;;24.40;;
5696;SDS011;2873;50.966;7.210;2022-12-17T00:27:45;75.03;;;24.00;;
5696;SDS011;2873;50.966;7.210;2022-12-17T00:30:29;68.93;;;23.27;;
5696;SDS011;2873;50.966;7.210;2022-12-17T00:33:13;70.25;;;24.27;;
5696;SDS011;2873;50.966;7.210;2022-12-17T00:35:57;73.30;;;23.40;;
5696;SDS011;2873;50.966;7.210;2022-12-17T00:38:43;80.20;;;24.67;;
5696;SDS011;2873;50.966;7.210;2022-12-17T00:41:28;80.55;;;25.15;;
5696;SDS011;2873;50.966;7.210;2022-12-17T00:44:12;70.47;;;24.00;;
5696;SDS011;2873;50.966;7.210;2022-12-17T00:46:56;67.72;;;22.65;;
5696;SDS011;2873;50.966;7.210;2022-12-17T00:49:40;72.85;;;23.77;;
5696;SDS011;2873;50.966;7.210;2022-12-17T00:52:27;72.90;;;24.40;;
5696;SDS011;2873;50.966;7.210;2022-12-17T00:55:11;72.50;;;24.13;;
5696;SDS011;2873;50.966;7.210;2022-12-17T00:57:56;74.15;;;24.00;;
5696;SDS011;2873;50.966;7.210;2022-12-17T01:00:40;71.97;;;23.77;;
5696;SDS011;2873;50.966;7.210;2022-12-17T01:03:25;71.53;;;23.83;;
5696;SDS011;2873;50.966;7.210;2022-12-17T01:06:09;71.47;;;24.17;;
5696;SDS011;2873;50.966;7.210;2022-12-17T01:08:54;78.28;;;25.27;;
5696;SDS011;2873;50.966;7.210;2022-12-17T01:11:38;77.27;;;27.37;;
5696;SDS011;2873;50.966;7.210;2022-12-17T01:14:23;83.93;;;25.10;;
5696;SDS011;2873;50.966;7.210;2022-12-17T01:17:08;81.10;;;25.63;;
5696;SDS011;2873;50.966;7.210;2022-12-17T01:19:52;71.43;;;24.20;;
5696;SDS011;2873;50.966;7.210;2022-12-17T01:22:36;66.95;;;23.25;;
5696;SDS011;2873;50.966;7.210;2022-12-17T01:25:20;84.78;;;25.25;;
5696;SDS011;2873;50.966;7.210;2022-12-17T01:28:04;68.93;;;25.00;;
5696;SDS011;2873;50.966;7.210;2022-12-17T01:30:48;68.05;;;24.08;;
5696;SDS011;2873;50.966;7.210;2022-12-17T01:33:32;80.28;;;25.90;;
5696;SDS011;2873;50.966;7.210;2022-12-17T01:36:18;67.63;;;25.50;;
5696;SDS011;2873;50.966;7.210;2022-12-17T01:39:03;67.13;;;25.60;;
5696;SDS011;2873;50.966;7.210;2022-12-17T01:41:47;65.10;;;23.38;;
5696;SDS011;2873;50.966;7.210;2022-12-17T01:47:25;74.60;;;26.27;;
5696;SDS011;2873;50.966;7.210;2022-12-17T01:50:15;67.88;;;25.15;;
5696;SDS011;2873;50.966;7.210;2022-12-17T01:53:01;64.37;;;24.80;;
5696;SDS011;2873;50.966;7.210;2022-12-17T01:55:48;75.13;;;25.88;;
5696;SDS011;2873;50.966;7.210;2022-12-17T01:58:32;70.82;;;25.05;;
5696;SDS011;2873;50.966;7.210;2022-12-17T02:01:18;67.82;;;24.10;;
5696;SDS011;2873;50.966;7.210;2022-12-17T02:04:03;71.10;;;25.43;;
5696;SDS011;2873;50.966;7.210;2022-12-17T02:06:58;62.30;;;25.83;;
5696;SDS011;2873;50.966;7.210;2022-12-17T02:13:17;68.57;;;24.88;;
5696;SDS011;2873;50.966;7.210;2022-12-17T02:16:54;78.70;;;26.42;;
5696;SDS011;2873;50.966;7.210;2022-12-17T02:25:47;73.68;;;25.52;;
5696;SDS011;2873;50.966;7.210;2022-12-17T02:28:51;72.53;;;25.77;;
5696;SDS011;2873;50.966;7.210;2022-12-17T02:31:38;73.85;;;26.33;;
5696;SDS011;2873;50.966;7.210;2022-12-17T02:34:23;66.18;;;24.15;;
5696;SDS011;2873;50.966;7.210;2022-12-17T02:37:08;73.43;;;24.60;;
5696;SDS011;2873;50.966;7.210;2022-12-17T02:39:52;64.82;;;23.52;;
5696;SDS011;2873;50.966;7.210;2022-12-17T02:42:36;68.78;;;25.88;;
5696;SDS011;2873;50.966;7.210;2022-12-17T02:45:20;74.45;;;23.30;;
5696;SDS011;2873;50.966;7.210;2022-12-17T02:48:05;65.07;;;24.47;;
5696;SDS011;2873;50.966;7.210;2022-12-17T02:50:51;71.05;;;25.67;;
5696;SDS011;2873;50.966;7.210;2022-12-17T02:53:40;70.55;;;24.73;;
5696;SDS011;2873;50.966;7.210;2022-12-17T02:56:26;70.28;;;23.85;;
5696;SDS011;2873;50.966;7.210;2022-12-17T02:59:10;65.55;;;24.17;;
5696;SDS011;2873;50.966;7.210;2022-12-17T03:01:54;64.07;;;22.92;;
5696;SDS011;2873;50.966;7.210;2022-12-17T03:04:38;53.40;;;21.90;;
5696;SDS011;2873;50.966;7.210;2022-12-17T03:07:22;62.97;;;23.20;;
5696;SDS011;2873;50.966;7.210;2022-12-17T03:10:06;64.20;;;23.20;;
5696;SDS011;2873;50.966;7.210;2022-12-17T03:12:51;60.40;;;21.98;;
5696;SDS011;2873;50.966;7.210;2022-12-17T03:15:35;56.47;;;22.40;;
5696;SDS011;2873;50.966;7.210;2022-12-17T03:18:19;58.40;;;21.20;;
5696;SDS011;2873;50.966;7.210;2022-12-17T03:21:03;50.17;;;19.27;;
5696;SDS011;2873;50.966;7.210;2022-12-17T03:23:47;48.08;;;18.75;;
5696;SDS011;2873;50.966;7.210;2022-12-17T03:26:31;52.35;;;18.85;;
5696;SDS011;2873;50.966;7.210;2022-12-17T03:29:15;46.90;;;17.23;;
5696;SDS011;2873;50.966;7.210;2022-12-17T03:31:59;42.33;;;16.38;;
5696;SDS011;2873;50.966;7.210;2022-12-17T03:34:43;45.53;;;16.80;;
5696;SDS011;2873;50.966;7.210;2022-12-17T03:37:27;39.10;;;15.32;;
5696;SDS011;2873;50.966;7.210;2022-12-17T03:40:11;42.40;;;16.37;;
5696;SDS011;2873;50.966;7.210;2022-12-17T03:42:55;42.50;;;16.65;;
5696;SDS011;2873;50.966;7.210;2022-12-17T03:45:39;45.70;;;16.60;;
5696;SDS011;2873;50.966;7.210;2022-12-17T03:48:24;48.95;;;18.77;;
5696;SDS011;2873;50.966;7.210;2022-12-17T03:51:07;46.78;;;17.70;;
5696;SDS011;2873;50.966;7.210;2022-12-17T03:53:52;41.83;;;16.88;;
5696;SDS011;2873;50.966;7.210;2022-12-17T03:56:36;41.35;;;18.00;;
5696;SDS011;2873;50.966;7.210;2022-12-17T03:59:20;50.97;;;20.13;;
5696;SDS011;2873;50.966;7.210;2022-12-17T04:02:04;50.17;;;19.55;;
5696;SDS011;2873;50.966;7.210;2022-12-17T04:04:48;49.38;;;18.90;;
5696;SDS011;2873;50.966;7.210;2022-12-17T04:07:52;46.40;;;19.30;;
5696;SDS011;2873;50.966;7.210;2022-12-17T04:10:36;47.05;;;18.67;;
5696;SDS011;2873;50.966;7.210;2022-12-17T04:13:20;47.08;;;19.60;;
5696;SDS011;2873;50.966;7.210;2022-12-17T04:16:04;45.65;;;19.17;;
5696;SDS011;2873;50.966;7.210;2022-12-17T04:18:48;43.80;;;18.00;;
5696;SDS011;2873;50.966;7.210;2022-12-17T04:21:32;39.65;;;17.30;;
5696;SDS011;2873;50.966;7.210;2022-12-17T04:24:16;40.20;;;17.70;;
5696;SDS011;2873;50.966;7.210;2022-12-17T04:27:01;34.40;;;16.75;;
5696;SDS011;2873;50.966;7.210;2022-12-17T04:29:45;37.08;;;15.73;;
5696;SDS011;2873;50.966;7.210;2022-12-17T04:32:29;36.17;;;15.75;;
5696;SDS011;2873;50.966;7.210;2022-12-17T04:35:13;40.72;;;15.55;;
5696;SDS011;2873;50.966;7.210;2022-12-17T04:37:57;37.83;;;16.48;;
5696;SDS011;2873;50.966;7.210;2022-12-17T04:40:41;36.85;;;16.15;;
5696;SDS011;2873;50.966;7.210;2022-12-17T04:43:25;33.33;;;16.33;;
5696;SDS011;2873;50.966;7.210;2022-12-17T04:46:09;37.17;;;17.90;;
5696;SDS011;2873;50.966;7.210;2022-12-17T04:48:53;36.40;;;17.77;;
5696;SDS011;2873;50.966;7.210;2022-12-17T04:51:45;36.53;;;16.10;;
5696;SDS011;2873;50.966;7.210;2022-12-17T04:54:29;37.58;;;17.23;;
5696;SDS011;2873;50.966;7.210;2022-12-17T04:57:13;39.20;;;18.13;;
5696;SDS011;2873;50.966;7.210;2022-12-17T04:59:57;37.47;;;17.37;;
5696;SDS011;2873;50.966;7.210;2022-12-17T05:02:41;45.83;;;19.73;;
5696;SDS011;2873;50.966;7.210;2022-12-17T05:05:25;42.15;;;18.77;;
5696;SDS011;2873;50.966;7.210;2022-12-17T05:08:09;41.42;;;19.13;;
5696;SDS011;2873;50.966;7.210;2022-12-17T05:10:53;38.23;;;17.47;;
5696;SDS011;2873;50.966;7.210;2022-12-17T05:13:37;42.05;;;18.95;;
5696;SDS011;2873;50.966;7.210;2022-12-17T05:16:21;35.42;;;18.00;;
5696;SDS011;2873;50.966;7.210;2022-12-17T05:19:06;42.50;;;18.70;;
5696;SDS011;2873;50.966;7.210;2022-12-17T05:21:50;36.90;;;17.20;;
5696;SDS011;2873;50.966;7.210;2022-12-17T05:24:34;38.60;;;17.17;;
5696;SDS011;2873;50.966;7.210;2022-12-17T05:27:18;38.15;;;17.42;;
5696;SDS011;2873;50.966;7.210;2022-12-17T05:30:02;39.38;;;17.38;;
5696;SDS011;2873;50.966;7.210;2022-12-17T05:32:46;42.13;;;16.17;;
5696;SDS011;2873;50.966;7.210;2022-12-17T05:35:31;39.35;;;16.38;;
5696;SDS011;2873;50.966;7.210;2022-12-17T05:38:15;47.45;;;16.90;;
5696;SDS011;2873;50.966;7.210;2022-12-17T05:40:59;37.67;;;15.65;;
5696;SDS011;2873;50.966;7.210;2022-12-17T05:43:42;35.40;;;15.48;;
5696;SDS011;2873;50.966;7.210;2022-12-17T05:46:27;41.85;;;16.25;;
5696;SDS011;2873;50.966;7.210;2022-12-17T05:49:12;37.78;;;15.57;;
5696;SDS011;2873;50.966;7.210;2022-12-17T05:51:56;42.40;;;16.13;;
5696;SDS011;2873;50.966;7.210;2022-12-17T05:54:40;37.30;;;15.20;;
5696;SDS011;2873;50.966;7.210;2022-12-17T05:57:24;36.65;;;14.85;;
5696;SDS011;2873;50.966;7.210;2022-12-17T06:00:08;43.80;;;16.58;;
5696;SDS011;2873;50.966;7.210;2022-12-17T06:02:57;44.13;;;16.27;;
5696;SDS011;2873;50.966;7.210;2022-12-17T06:05:42;40.75;;;15.27;;
5696;SDS011;2873;50.966;7.210;2022-12-17T06:08:27;40.67;;;15.73;;
5696;SDS011;2873;50.966;7.210;2022-12-17T06:11:11;43.03;;;17.20;;
5696;SDS011;2873;50.966;7.210;2022-12-17T06:13:55;37.08;;;16.50;;
5696;SDS011;2873;50.966;7.210;2022-12-17T06:16:39;38.20;;;15.68;;
5696;SDS011;2873;50.966;7.210;2022-12-17T06:19:23;36.55;;;16.10;;
5696;SDS011;2873;50.966;7.210;2022-12-17T06:22:09;38.88;;;15.55;;
5696;SDS011;2873;50.966;7.210;2022-12-17T06:24:53;42.20;;;16.55;;
5696;SDS011;2873;50.966;7.210;2022-12-17T06:27:37;37.95;;;15.68;;
5696;SDS011;2873;50.966;7.210;2022-12-17T06:30:32;34.55;;;16.30;;
5696;SDS011;2873;50.966;7.210;2022-12-17T06:33:16;37.95;;;15.00;;
5696;SDS011;2873;50.966;7.210;2022-12-17T06:36:00;42.88;;;16.58;;
5696;SDS011;2873;50.966;7.210;2022-12-17T06:38:44;39.10;;;16.85;;
5696;SDS011;2873;50.966;7.210;2022-12-17T06:41:28;36.57;;;15.63;;
5696;SDS011;2873;50.966;7.210;2022-12-17T06:44:12;28.92;;;14.43;;
5696;SDS011;2873;50.966;7.210;2022-12-17T06:46:56;34.40;;;14.52;;
5696;SDS011;2873;50.966;7.210;2022-12-17T06:49:40;32.47;;;14.90;;
5696;SDS011;2873;50.966;7.210;2022-12-17T06:52:26;34.70;;;15.40;;
5696;SDS011;2873;50.966;7.210;2022-12-17T06:55:10;35.35;;;15.30;;
5696;SDS011;2873;50.966;7.210;2022-12-17T06:57:55;29.80;;;13.65;;
5696;SDS011;2873;50.966;7.210;2022-12-17T07:00:40;33.67;;;14.50;;
5696;SDS011;2873;50.966;7.210;2022-12-17T07:03:24;30.60;;;13.70;;
5696;SDS011;2873;50.966;7.210;2022-12-17T07:06:08;32.80;;;14.43;;
5696;SDS011;2873;50.966;7.210;2022-12-17T07:08:52;35.25;;;14.60;;
5696;SDS011;2873;50.966;7.210;2022-12-17T07:11:36;29.77;;;13.57;;
5696;SDS011;2873;50.966;7.210;2022-12-17T07:14:20;31.20;;;14.23;;
5696;SDS011;2873;50.966;7.210;2022-12-17T07:17:04;31.95;;;14.25;;
5696;SDS011;2873;50.966;7.210;2022-12-17T07:19:48;31.23;;;13.82;;
5696;SDS011;2873;50.966;7.210;2022-12-17T07:22:33;32.45;;;13.38;;
5696;SDS011;2873;50.966;7.210;2022-12-17T07:25:17;30.80;;;14.37;;
5696;SDS011;2873;50.966;7.210;2022-12-17T07:28:05;32.70;;;13.00;;
5696;SDS011;2873;50.966;7.210;2022-12-17T07:30:50;31.13;;;14.45;;
5696;SDS011;2873;50.966;7.210;2022-12-17T07:33:34;33.70;;;14.05;;
5696;SDS011;2873;50.966;7.210;2022-12-17T07:36:18;33.10;;;14.07;;
5696;SDS011;2873;50.966;7.210;2022-12-17T07:39:02;34.63;;;14.70;;
5696;SDS011;2873;50.966;7.210;2022-12-17T07:41:46;32.00;;;13.88;;
5696;SDS011;2873;50.966;7.210;2022-12-17T07:44:30;29.85;;;13.88;;
5696;SDS011;2873;50.966;7.210;2022-12-17T07:47:14;30.50;;;13.50;;
5696;SDS011;2873;50.966;7.210;2022-12-17T07:49:58;34.35;;;15.13;;
5696;SDS011;2873;50.966;7.210;2022-12-17T07:52:42;37.90;;;16.77;;
5696;SDS011;2873;50.966;7.210;2022-12-17T07:55:26;33.58;;;15.75;;
5696;SDS011;2873;50.966;7.210;2022-12-17T07:58:10;33.80;;;15.48;;
5696;SDS011;2873;50.966;7.210;2022-12-17T08:00:57;30.42;;;14.05;;
5696;SDS011;2873;50.966;7.210;2022-12-17T08:03:42;33.38;;;14.50;;
5696;SDS011;2873;50.966;7.210;2022-12-17T08:06:27;32.88;;;15.63;;
5696;SDS011;2873;50.966;7.210;2022-12-17T08:09:11;35.25;;;15.07;;
5696;SDS011;2873;50.966;7.210;2022-12-17T08:11:55;32.15;;;16.67;;
5696;SDS011;2873;50.966;7.210;2022-12-17T08:14:39;30.37;;;14.50;;
5696;SDS011;2873;50.966;7.210;2022-12-17T08:17:23;35.33;;;15.65;;
5696;SDS011;2873;50.966;7.210;2022-12-17T08:20:07;33.50;;;15.30;;
5696;SDS011;2873;50.966;7.210;2022-12-17T08:22:52;30.48;;;13.57;;
5696;SDS011;2873;50.966;7.210;2022-12-17T08:25:43;34.63;;;14.50;;
5696;SDS011;2873;50.966;7.210;2022-12-17T08:28:27;31.53;;;14.20;;
5696;SDS011;2873;50.966;7.210;2022-12-17T08:31:11;36.47;;;14.70;;
5696;SDS011;2873;50.966;7.210;2022-12-17T08:33:55;30.30;;;14.38;;
5696;SDS011;2873;50.966;7.210;2022-12-17T08:36:39;27.57;;;14.03;;
5696;SDS011;2873;50.966;7.210;2022-12-17T08:39:23;31.17;;;14.30;;
5696;SDS011;2873;50.966;7.210;2022-12-17T08:42:08;30.85;;;14.35;;
5696;SDS011;2873;50.966;7.210;2022-12-17T08:44:52;29.10;;;14.00;;
5696;SDS011;2873;50.966;7.210;2022-12-17T08:47:36;30.13;;;13.30;;
5696;SDS011;2873;50.966;7.210;2022-12-17T08:50:20;27.30;;;12.82;;
5696;SDS011;2873;50.966;7.210;2022-12-17T08:53:05;28.15;;;12.80;;
5696;SDS011;2873;50.966;7.210;2022-12-17T08:55:49;29.25;;;13.60;;
5696;SDS011;2873;50.966;7.210;2022-12-17T08:58:33;29.95;;;13.10;;
5696;SDS011;2873;50.966;7.210;2022-12-17T09:01:17;29.77;;;13.20;;
5696;SDS011;2873;50.966;7.210;2022-12-17T09:04:01;25.45;;;12.60;;
5696;SDS011;2873;50.966;7.210;2022-12-17T09:06:46;25.40;;;12.93;;
5696;SDS011;2873;50.966;7.210;2022-12-17T09:09:30;28.52;;;12.80;;
5696;SDS011;2873;50.966;7.210;2022-12-17T09:12:14;26.37;;;12.90;;
5696;SDS011;2873;50.966;7.210;2022-12-17T09:14:58;25.27;;;13.10;;
5696;SDS011;2873;50.966;7.210;2022-12-17T09:17:42;27.27;;;13.32;;
5696;SDS011;2873;50.966;7.210;2022-12-17T09:20:26;26.30;;;12.95;;
5696;SDS011;2873;50.966;7.210;2022-12-17T09:23:13;26.73;;;12.65;;
5696;SDS011;2873;50.966;7.210;2022-12-17T09:25:58;23.60;;;11.98;;
5696;SDS011;2873;50.966;7.210;2022-12-17T09:28:43;26.20;;;13.15;;
5696;SDS011;2873;50.966;7.210;2022-12-17T09:31:27;32.00;;;13.23;;
5696;SDS011;2873;50.966;7.210;2022-12-17T09:34:12;30.70;;;13.10;;
5696;SDS011;2873;50.966;7.210;2022-12-17T09:36:56;28.27;;;13.20;;
5696;SDS011;2873;50.966;7.210;2022-12-17T09:39:40;30.85;;;13.43;;
5696;SDS011;2873;50.966;7.210;2022-12-17T09:42:33;31.33;;;14.05;;
5696;SDS011;2873;50.966;7.210;2022-12-17T09:45:22;28.03;;;13.30;;
5696;SDS011;2873;50.966;7.210;2022-12-17T09:48:16;29.50;;;13.25;;
5696;SDS011;2873;50.966;7.210;2022-12-17T09:51:27;30.23;;;13.20;;
5696;SDS011;2873;50.966;7.210;2022-12-17T09:54:27;25.25;;;13.20;;
5696;SDS011;2873;50.966;7.210;2022-12-17T09:57:26;25.63;;;12.88;;
5696;SDS011;2873;50.966;7.210;2022-12-17T10:00:13;25.52;;;13.20;;
5696;SDS011;2873;50.966;7.210;2022-12-17T10:03:13;26.93;;;12.57;;
5696;SDS011;2873;50.966;7.210;2022-12-17T10:06:19;26.80;;;12.77;;
5696;SDS011;2873;50.966;7.210;2022-12-17T10:09:14;25.80;;;13.10;;
5696;SDS011;2873;50.966;7.210;2022-12-17T10:12:06;28.98;;;14.02;;
5696;SDS011;2873;50.966;7.210;2022-12-17T10:14:58;30.58;;;13.65;;
5696;SDS011;2873;50.966;7.210;2022-12-17T10:17:42;27.35;;;14.00;;
5696;SDS011;2873;50.966;7.210;2022-12-17T10:20:35;24.02;;;12.80;;
5696;SDS011;2873;50.966;7.210;2022-12-17T10:23:40;25.73;;;12.70;;
5696;SDS011;2873;50.966;7.210;2022-12-17T10:26:25;26.10;;;14.23;;
5696;SDS011;2873;50.966;7.210;2022-12-17T10:29:15;25.25;;;13.23;;
5696;SDS011;2873;50.966;7.210;2022-12-17T10:34:58;25.77;;;12.60;;
5696;SDS011;2873;50.966;7.210;2022-12-17T10:37:43;30.25;;;13.63;;
5696;SDS011;2873;50.966;7.210;2022-12-17T10:40:28;25.77;;;12.98;;
5696;SDS011;2873;50.966;7.210;2022-12-17T10:43:21;25.27;;;12.93;;
5696;SDS011;2873;50.966;7.210;2022-12-17T10:46:05;25.63;;;12.80;;
5696;SDS011;2873;50.966;7.210;2022-12-17T10:48:49;24.97;;;12.97;;
5696;SDS011;2873;50.966;7.210;2022-12-17T10:51:34;27.95;;;14.05;;
5696;SDS011;2873;50.966;7.210;2022-12-17T10:57:26;26.45;;;13.55;;
5696;SDS011;2873;50.966;7.210;2022-12-17T11:00:22;24.57;;;12.80;;
5696;SDS011;2873;50.966;7.210;2022-12-17T11:03:22;25.23;;;14.02;;
5696;SDS011;2873;50.966;7.210;2022-12-17T11:06:21;27.75;;;14.50;;
5696;SDS011;2873;50.966;7.210;2022-12-17T11:12:24;22.05;;;12.15;;
5696;SDS011;2873;50.966;7.210;2022-12-17T11:15:20;24.10;;;13.20;;
5696;SDS011;2873;50.966;7.210;2022-12-17T11:18:16;24.55;;;13.02;;
5696;SDS011;2873;50.966;7.210;2022-12-17T11:21:06;21.15;;;12.10;;
5696;SDS011;2873;50.966;7.210;2022-12-17T11:23:54;25.40;;;13.52;;
5696;SDS011;2873;50.966;7.210;2022-12-17T11:26:41;24.50;;;13.10;;
5696;SDS011;2873;50.966;7.210;2022-12-17T11:29:29;23.80;;;13.25;;
5696;SDS011;2873;50.966;7.210;2022-12-17T11:53:17;24.40;;;13.10;;
5696;SDS011;2873;50.966;7.210;2022-12-17T11:56:41;28.90;;;14.07;;
5696;SDS011;2873;50.966;7.210;2022-12-17T11:59:36;23.63;;;12.38;;
5696;SDS011;2873;50.966;7.210;2022-12-17T12:08:36;22.97;;;12.97;;
5696;SDS011;2873;50.966;7.210;2022-12-17T12:15:06;23.40;;;13.60;;
5696;SDS011;2873;50.966;7.210;2022-12-17T12:18:19;22.77;;;13.32;;
5696;SDS011;2873;50.966;7.210;2022-12-17T12:27:55;24.80;;;13.70;;
5696;SDS011;2873;50.966;7.210;2022-12-17T12:30:53;23.85;;;13.13;;
5696;SDS011;2873;50.966;7.210;2022-12-17T12:36:28;23.88;;;13.00;;
5696;SDS011;2873;50.966;7.210;2022-12-17T12:39:16;20.75;;;12.85;;
5696;SDS011;2873;50.966;7.210;2022-12-17T12:51:34;19.38;;;12.00;;
5696;SDS011;2873;50.966;7.210;2022-12-17T12:57:26;20.83;;;12.53;;
5696;SDS011;2873;50.966;7.210;2022-12-17T13:06:38;21.55;;;12.90;;
5696;SDS011;2873;50.966;7.210;2022-12-17T13:11:43;21.90;;;12.60;;
5696;SDS011;2873;50.966;7.210;2022-12-17T13:14:28;20.45;;;12.05;;
5696;SDS011;2873;50.966;7.210;2022-12-17T13:19:58;20.27;;;12.30;;
5696;SDS011;2873;50.966;7.210;2022-12-17T13:22:28;19.65;;;12.40;;
5696;SDS011;2873;50.966;7.210;2022-12-17T13:25:14;22.30;;;13.50;;
5696;SDS011;2873;50.966;7.210;2022-12-17T13:27:43;21.37;;;12.23;;
5696;SDS011;2873;50.966;7.210;2022-12-17T13:33:05;24.00;;;13.20;;
5696;SDS011;2873;50.966;7.210;2022-12-17T13:41:25;21.02;;;11.93;;
5696;SDS011;2873;50.966;7.210;2022-12-17T13:44:42;21.63;;;12.85;;
5696;SDS011;2873;50.966;7.210;2022-12-17T13:46:47;21.60;;;12.43;;
5696;SDS011;2873;50.966;7.210;2022-12-17T13:51:46;22.63;;;13.10;;
5696;SDS011;2873;50.966;7.210;2022-12-17T13:54:16;22.33;;;13.02;;
5696;SDS011;2873;50.966;7.210;2022-12-17T13:56:43;20.35;;;12.85;;
5696;SDS011;2873;50.966;7.210;2022-12-17T13:59:15;20.33;;;12.40;;
5696;SDS011;2873;50.966;7.210;2022-12-17T14:01:48;21.40;;;13.00;;
5696;SDS011;2873;50.966;7.210;2022-12-17T14:04:23;19.95;;;12.43;;
5696;SDS011;2873;50.966;7.210;2022-12-17T14:06:51;19.48;;;12.05;;
5696;SDS011;2873;50.966;7.210;2022-12-17T14:09:19;21.45;;;12.98;;
5696;SDS011;2873;50.966;7.210;2022-12-17T14:11:47;20.73;;;12.53;;
5696;SDS011;2873;50.966;7.210;2022-12-17T14:14:33;23.00;;;12.90;;
5696;SDS011;2873;50.966;7.210;2022-12-17T14:17:03;19.88;;;11.65;;
5696;SDS011;2873;50.966;7.210;2022-12-17T14:19:28;22.33;;;12.45;;
5696;SDS011;2873;50.966;7.210;2022-12-17T14:21:56;21.80;;;12.50;;
5696;SDS011;2873;50.966;7.210;2022-12-17T14:24:23;20.25;;;12.23;;
5696;SDS011;2873;50.966;7.210;2022-12-17T14:26:56;22.73;;;12.90;;
5696;SDS011;2873;50.966;7.210;2022-12-17T14:29:24;18.33;;;12.30;;
5696;SDS011;2873;50.966;7.210;2022-12-17T14:31:56;22.48;;;12.32;;
5696;SDS011;2873;50.966;7.210;2022-12-17T14:34:23;23.02;;;12.55;;
5696;SDS011;2873;50.966;7.210;2022-12-17T14:36:56;22.35;;;12.98;;
5696;SDS011;2873;50.966;7.210;2022-12-17T14:39:28;19.07;;;12.30;;
5696;SDS011;2873;50.966;7.210;2022-12-17T14:41:56;21.17;;;11.93;;
5696;SDS011;2873;50.966;7.210;2022-12-17T14:47:37;21.63;;;12.18;;
5696;SDS011;2873;50.966;7.210;2022-12-17T14:50:22;22.27;;;12.55;;
5696;SDS011;2873;50.966;7.210;2022-12-17T14:52:57;20.17;;;11.63;;
5696;SDS011;2873;50.966;7.210;2022-12-17T15:00:40;19.00;;;11.63;;
5696;SDS011;2873;50.966;7.210;2022-12-17T15:03:16;21.40;;;11.82;;
5696;SDS011;2873;50.966;7.210;2022-12-17T15:05:53;20.92;;;11.55;;
5696;SDS011;2873;50.966;7.210;2022-12-17T15:08:21;21.40;;;12.40;;
5696;SDS011;2873;50.966;7.210;2022-12-17T15:10:47;19.10;;;10.97;;
5696;SDS011;2873;50.966;7.210;2022-12-17T15:13:13;20.20;;;11.97;;
5696;SDS011;2873;50.966;7.210;2022-12-17T15:15:38;23.03;;;12.50;;
5696;SDS011;2873;50.966;7.210;2022-12-17T15:18:04;19.27;;;11.70;;
5696;SDS011;2873;50.966;7.210;2022-12-17T15:20:29;22.02;;;11.90;;
5696;SDS011;2873;50.966;7.210;2022-12-17T15:22:55;22.00;;;11.90;;
5696;SDS011;2873;50.966;7.210;2022-12-17T15:25:21;21.43;;;12.33;;
5696;SDS011;2873;50.966;7.210;2022-12-17T15:27:46;20.00;;;11.93;;
5696;SDS011;2873;50.966;7.210;2022-12-17T15:30:12;19.92;;;11.82;;
5696;SDS011;2873;50.966;7.210;2022-12-17T15:32:40;19.60;;;12.05;;
5696;SDS011;2873;50.966;7.210;2022-12-17T15:35:06;22.50;;;11.90;;
5696;SDS011;2873;50.966;7.210;2022-12-17T15:37:32;23.38;;;13.30;;
5696;SDS011;2873;50.966;7.210;2022-12-17T15:39:58;21.83;;;12.57;;
5696;SDS011;2873;50.966;7.210;2022-12-17T15:42:23;21.52;;;13.20;;
5696;SDS011;2873;50.966;7.210;2022-12-17T15:45:09;23.60;;;13.10;;
5696;SDS011;2873;50.966;7.210;2022-12-17T15:47:34;22.92;;;13.20;;
5696;SDS011;2873;50.966;7.210;2022-12-17T15:50:00;20.67;;;12.20;;
5696;SDS011;2873;50.966;7.210;2022-12-17T15:52:26;20.75;;;11.88;;
5696;SDS011;2873;50.966;7.210;2022-12-17T15:54:52;22.02;;;12.50;;
5696;SDS011;2873;50.966;7.210;2022-12-17T15:57:18;23.42;;;13.05;;
5696;SDS011;2873;50.966;7.210;2022-12-17T15:59:43;24.67;;;13.10;;
5696;SDS011;2873;50.966;7.210;2022-12-17T16:02:09;24.38;;;12.98;;
5696;SDS011;2873;50.966;7.210;2022-12-17T16:04:35;20.73;;;11.05;;
5696;SDS011;2873;50.966;7.210;2022-12-17T16:07:01;23.50;;;12.32;;
5696;SDS011;2873;50.966;7.210;2022-12-17T16:09:30;22.15;;;12.05;;
5696;SDS011;2873;50.966;7.210;2022-12-17T16:11:56;24.83;;;12.87;;
5696;SDS011;2873;50.966;7.210;2022-12-17T16:14:22;23.13;;;12.50;;
5696;SDS011;2873;50.966;7.210;2022-12-17T16:16:48;20.85;;;11.88;;
5696;SDS011;2873;50.966;7.210;2022-12-17T16:19:15;24.42;;;11.93;;
5696;SDS011;2873;50.966;7.210;2022-12-17T16:21:41;22.23;;;12.00;;
5696;SDS011;2873;50.966;7.210;2022-12-17T16:24:07;21.97;;;11.83;;
5696;SDS011;2873;50.966;7.210;2022-12-17T16:26:34;23.25;;;12.18;;
5696;SDS011;2873;50.966;7.210;2022-12-17T16:29:00;20.15;;;12.25;;
5696;SDS011;2873;50.966;7.210;2022-12-17T16:31:26;21.33;;;12.38;;
5696;SDS011;2873;50.966;7.210;2022-12-17T16:33:51;23.47;;;13.83;;
5696;SDS011;2873;50.966;7.210;2022-12-17T16:36:17;26.58;;;13.00;;
5696;SDS011;2873;50.966;7.210;2022-12-17T16:38:46;22.30;;;11.55;;
5696;SDS011;2873;50.966;7.210;2022-12-17T16:41:13;19.75;;;11.00;;
5696;SDS011;2873;50.966;7.210;2022-12-17T16:43:40;21.77;;;12.05;;
5696;SDS011;2873;50.966;7.210;2022-12-17T16:46:21;21.10;;;11.90;;
5696;SDS011;2873;50.966;7.210;2022-12-17T16:48:55;21.30;;;10.85;;
5696;SDS011;2873;50.966;7.210;2022-12-17T16:51:23;21.35;;;12.32;;
5696;SDS011;2873;50.966;7.210;2022-12-17T16:53:50;27.60;;;14.50;;
5696;SDS011;2873;50.966;7.210;2022-12-17T16:56:17;25.53;;;14.50;;
5696;SDS011;2873;50.966;7.210;2022-12-17T16:58:44;23.77;;;13.80;;
5696;SDS011;2873;50.966;7.210;2022-12-17T17:01:10;28.80;;;14.35;;
5696;SDS011;2873;50.966;7.210;2022-12-17T17:03:39;35.90;;;17.55;;
5696;SDS011;2873;50.966;7.210;2022-12-17T17:06:06;30.47;;;17.03;;
5696;SDS011;2873;50.966;7.210;2022-12-17T17:08:34;24.15;;;15.02;;
5696;SDS011;2873;50.966;7.210;2022-12-17T17:11:20;26.65;;;14.30;;
5696;SDS011;2873;50.966;7.210;2022-12-17T17:13:47;35.70;;;20.50;;
5696;SDS011;2873;50.966;7.210;2022-12-17T17:16:14;49.90;;;27.73;;
5696;SDS011;2873;50.966;7.210;2022-12-17T17:18:41;28.30;;;17.40;;
5696;SDS011;2873;50.966;7.210;2022-12-17T17:23:48;23.87;;;14.57;;
5696;SDS011;2873;50.966;7.210;2022-12-17T17:26:16;22.63;;;12.48;;
5696;SDS011;2873;50.966;7.210;2022-12-17T17:28:41;20.30;;;11.23;;
5696;SDS011;2873;50.966;7.210;2022-12-17T17:31:10;20.55;;;12.02;;
5696;SDS011;2873;50.966;7.210;2022-12-17T17:33:37;20.90;;;11.70;;
5696;SDS011;2873;50.966;7.210;2022-12-17T17:36:08;36.10;;;20.15;;
5696;SDS011;2873;50.966;7.210;2022-12-17T17:38:36;36.90;;;21.00;;
5696;SDS011;2873;50.966;7.210;2022-12-17T17:41:02;28.48;;;16.25;;
5696;SDS011;2873;50.966;7.210;2022-12-17T17:43:29;31.10;;;17.67;;
5696;SDS011;2873;50.966;7.210;2022-12-17T17:45:55;25.75;;;15.40;;
5696;SDS011;2873;50.966;7.210;2022-12-17T17:48:27;23.25;;;13.27;;
5696;SDS011;2873;50.966;7.210;2022-12-17T17:50:56;25.90;;;13.77;;
5696;SDS011;2873;50.966;7.210;2022-12-17T17:53:30;19.92;;;11.52;;
5696;SDS011;2873;50.966;7.210;2022-12-17T17:56:06;19.97;;;11.97;;
5696;SDS011;2873;50.966;7.210;2022-12-17T17:58:38;19.20;;;10.52;;
5696;SDS011;2873;50.966;7.210;2022-12-17T18:01:12;19.85;;;11.63;;